sensor_id;sensor_type;location;lat;lon;timestamp;P1;durP1;ratioP1;P2;durP2;ratioP2
59788;SDS011;47353;51.614;5.530;2023-04-07T00:00:15;36.22;;;19.85;;
59788;SDS011;47353;51.614;5.530;2023-04-07T00:02:42;35.17;;;19.23;;
59788;SDS011;47353;51.614;5.530;2023-04-07T00:05:07;38.60;;;20.25;;
59788;SDS011;47353;51.614;5.530;2023-04-07T00:07:33;38.88;;;20.08;;
59788;SDS011;47353;51.614;5.530;2023-04-07T00:09:58;35.38;;;19.63;;
59788;SDS011;47353;51.614;5.530;2023-04-07T00:12:23;35.75;;;19.40;;
59788;SDS011;47353;51.614;5.530;2023-04-07T00:14:49;37.63;;;19.80;;
59788;SDS011;47353;51.614;5.530;2023-04-07T00:17:14;36.13;;;18.92;;
59788;SDS011;47353;51.614;5.530;2023-04-07T00:19:40;33.75;;;20.55;;
59788;SDS011;47353;51.614;5.530;2023-04-07T00:22:05;33.38;;;18.85;;
59788;SDS011;47353;51.614;5.530;2023-04-07T00:24:31;32.58;;;19.15;;
59788;SDS011;47353;51.614;5.530;2023-04-07T00:26:56;29.50;;;17.50;;
59788;SDS011;47353;51.614;5.530;2023-04-07T00:29:22;30.23;;;17.30;;
59788;SDS011;47353;51.614;5.530;2023-04-07T00:31:47;31.27;;;16.05;;
59788;SDS011;47353;51.614;5.530;2023-04-07T00:34:12;30.65;;;15.98;;
59788;SDS011;47353;51.614;5.530;2023-04-07T00:36:38;28.13;;;15.38;;
59788;SDS011;47353;51.614;5.530;2023-04-07T00:39:03;29.65;;;15.02;;
59788;SDS011;47353;51.614;5.530;2023-04-07T00:41:29;26.88;;;15.38;;
59788;SDS011;47353;51.614;5.530;2023-04-07T00:43:54;25.02;;;14.00;;
59788;SDS011;47353;51.614;5.530;2023-04-07T00:46:20;24.85;;;13.73;;
59788;SDS011;47353;51.614;5.530;2023-04-07T00:48:47;20.90;;;13.05;;
59788;SDS011;47353;51.614;5.530;2023-04-07T00:51:12;21.35;;;12.70;;
59788;SDS011;47353;51.614;5.530;2023-04-07T00:53:38;20.00;;;12.23;;
59788;SDS011;47353;51.614;5.530;2023-04-07T00:56:04;23.40;;;12.50;;
59788;SDS011;47353;51.614;5.530;2023-04-07T00:58:30;21.35;;;12.13;;
59788;SDS011;47353;51.614;5.530;2023-04-07T01:04:00;23.80;;;12.40;;
59788;SDS011;47353;51.614;5.530;2023-04-07T01:06:33;20.90;;;12.15;;
59788;SDS011;47353;51.614;5.530;2023-04-07T01:11:41;20.33;;;12.43;;
59788;SDS011;47353;51.614;5.530;2023-04-07T01:14:12;22.17;;;12.55;;
59788;SDS011;47353;51.614;5.530;2023-04-07T01:16:45;24.63;;;13.20;;
59788;SDS011;47353;51.614;5.530;2023-04-07T01:21:41;20.35;;;11.52;;
59788;SDS011;47353;51.614;5.530;2023-04-07T01:26:43;15.38;;;9.20;;
59788;SDS011;47353;51.614;5.530;2023-04-07T01:31:59;15.95;;;8.57;;
59788;SDS011;47353;51.614;5.530;2023-04-07T01:34:26;19.60;;;8.85;;
59788;SDS011;47353;51.614;5.530;2023-04-07T01:36:54;16.55;;;8.40;;
59788;SDS011;47353;51.614;5.530;2023-04-07T01:39:22;16.05;;;8.90;;
59788;SDS011;47353;51.614;5.530;2023-04-07T01:41:50;18.73;;;8.80;;
59788;SDS011;47353;51.614;5.530;2023-04-07T01:44:17;15.98;;;8.65;;
59788;SDS011;47353;51.614;5.530;2023-04-07T01:46:44;17.83;;;8.85;;
59788;SDS011;47353;51.614;5.530;2023-04-07T01:49:10;15.85;;;8.25;;
59788;SDS011;47353;51.614;5.530;2023-04-07T01:51:37;16.25;;;7.93;;
59788;SDS011;47353;51.614;5.530;2023-04-07T01:54:05;15.13;;;8.18;;
59788;SDS011;47353;51.614;5.530;2023-04-07T01:56:32;15.60;;;8.00;;
59788;SDS011;47353;51.614;5.530;2023-04-07T01:58:58;12.68;;;7.78;;
59788;SDS011;47353;51.614;5.530;2023-04-07T02:01:23;17.30;;;8.10;;
59788;SDS011;47353;51.614;5.530;2023-04-07T02:03:53;13.10;;;7.47;;
59788;SDS011;47353;51.614;5.530;2023-04-07T02:06:27;11.98;;;7.10;;
59788;SDS011;47353;51.614;5.530;2023-04-07T02:08:58;15.57;;;7.05;;
59788;SDS011;47353;51.614;5.530;2023-04-07T02:11:26;15.25;;;6.55;;
59788;SDS011;47353;51.614;5.530;2023-04-07T02:13:53;12.60;;;6.93;;
59788;SDS011;47353;51.614;5.530;2023-04-07T02:16:21;11.05;;;6.82;;
59788;SDS011;47353;51.614;5.530;2023-04-07T02:18:47;10.95;;;6.10;;
59788;SDS011;47353;51.614;5.530;2023-04-07T02:21:13;13.85;;;6.93;;
59788;SDS011;47353;51.614;5.530;2023-04-07T02:23:40;14.77;;;7.32;;
59788;SDS011;47353;51.614;5.530;2023-04-07T02:26:06;13.30;;;7.25;;
59788;SDS011;47353;51.614;5.530;2023-04-07T02:28:32;14.23;;;7.05;;
59788;SDS011;47353;51.614;5.530;2023-04-07T02:30:57;10.48;;;6.75;;
59788;SDS011;47353;51.614;5.530;2023-04-07T02:33:23;13.70;;;6.57;;
59788;SDS011;47353;51.614;5.530;2023-04-07T02:35:48;12.07;;;6.47;;
59788;SDS011;47353;51.614;5.530;2023-04-07T02:38:14;13.75;;;6.90;;
59788;SDS011;47353;51.614;5.530;2023-04-07T02:40:39;11.93;;;6.50;;
59788;SDS011;47353;51.614;5.530;2023-04-07T02:43:05;11.85;;;6.88;;
59788;SDS011;47353;51.614;5.530;2023-04-07T02:45:31;12.55;;;6.63;;
59788;SDS011;47353;51.614;5.530;2023-04-07T02:47:56;12.60;;;6.93;;
59788;SDS011;47353;51.614;5.530;2023-04-07T02:50:21;13.65;;;6.65;;
59788;SDS011;47353;51.614;5.530;2023-04-07T02:52:47;12.13;;;6.95;;
59788;SDS011;47353;51.614;5.530;2023-04-07T02:55:12;13.63;;;7.18;;
59788;SDS011;47353;51.614;5.530;2023-04-07T02:57:38;15.80;;;7.55;;
59788;SDS011;47353;51.614;5.530;2023-04-07T03:00:03;12.48;;;7.00;;
59788;SDS011;47353;51.614;5.530;2023-04-07T03:02:29;13.98;;;7.22;;
59788;SDS011;47353;51.614;5.530;2023-04-07T03:04:55;12.68;;;7.47;;
59788;SDS011;47353;51.614;5.530;2023-04-07T03:07:20;11.63;;;6.90;;
59788;SDS011;47353;51.614;5.530;2023-04-07T03:09:46;11.43;;;7.00;;
59788;SDS011;47353;51.614;5.530;2023-04-07T03:12:11;11.40;;;7.18;;
59788;SDS011;47353;51.614;5.530;2023-04-07T03:14:37;14.95;;;7.40;;
59788;SDS011;47353;51.614;5.530;2023-04-07T03:17:02;13.52;;;7.63;;
59788;SDS011;47353;51.614;5.530;2023-04-07T03:19:28;14.95;;;7.57;;
59788;SDS011;47353;51.614;5.530;2023-04-07T03:21:54;14.90;;;7.28;;
59788;SDS011;47353;51.614;5.530;2023-04-07T03:24:19;14.55;;;7.55;;
59788;SDS011;47353;51.614;5.530;2023-04-07T03:26:45;13.65;;;7.47;;
59788;SDS011;47353;51.614;5.530;2023-04-07T03:29:10;15.63;;;7.05;;
59788;SDS011;47353;51.614;5.530;2023-04-07T03:31:36;12.63;;;7.57;;
59788;SDS011;47353;51.614;5.530;2023-04-07T03:34:03;13.70;;;7.00;;
59788;SDS011;47353;51.614;5.530;2023-04-07T03:36:29;11.35;;;6.72;;
59788;SDS011;47353;51.614;5.530;2023-04-07T03:38:55;18.05;;;7.47;;
59788;SDS011;47353;51.614;5.530;2023-04-07T03:41:21;13.63;;;7.47;;
59788;SDS011;47353;51.614;5.530;2023-04-07T03:43:47;14.93;;;7.22;;
59788;SDS011;47353;51.614;5.530;2023-04-07T03:46:12;14.10;;;7.35;;
59788;SDS011;47353;51.614;5.530;2023-04-07T03:48:38;15.20;;;6.88;;
59788;SDS011;47353;51.614;5.530;2023-04-07T03:51:03;12.70;;;7.13;;
59788;SDS011;47353;51.614;5.530;2023-04-07T03:53:28;14.65;;;6.68;;
59788;SDS011;47353;51.614;5.530;2023-04-07T03:55:54;13.57;;;6.60;;
59788;SDS011;47353;51.614;5.530;2023-04-07T03:58:19;14.20;;;6.95;;
59788;SDS011;47353;51.614;5.530;2023-04-07T04:00:45;17.33;;;6.82;;
59788;SDS011;47353;51.614;5.530;2023-04-07T04:03:10;18.08;;;6.85;;
59788;SDS011;47353;51.614;5.530;2023-04-07T04:05:36;14.90;;;7.38;;
59788;SDS011;47353;51.614;5.530;2023-04-07T04:08:01;14.05;;;6.85;;
59788;SDS011;47353;51.614;5.530;2023-04-07T04:10:26;19.67;;;7.25;;
59788;SDS011;47353;51.614;5.530;2023-04-07T04:12:52;17.30;;;6.95;;
59788;SDS011;47353;51.614;5.530;2023-04-07T04:15:17;18.25;;;7.45;;
59788;SDS011;47353;51.614;5.530;2023-04-07T04:17:43;19.60;;;7.50;;
59788;SDS011;47353;51.614;5.530;2023-04-07T04:20:08;17.83;;;7.90;;
59788;SDS011;47353;51.614;5.530;2023-04-07T04:22:34;18.40;;;7.43;;
59788;SDS011;47353;51.614;5.530;2023-04-07T04:25:00;17.48;;;7.43;;
59788;SDS011;47353;51.614;5.530;2023-04-07T04:27:26;15.52;;;7.43;;
59788;SDS011;47353;51.614;5.530;2023-04-07T04:29:51;19.45;;;7.72;;
59788;SDS011;47353;51.614;5.530;2023-04-07T04:32:17;18.92;;;8.10;;
59788;SDS011;47353;51.614;5.530;2023-04-07T04:34:43;19.25;;;7.25;;
59788;SDS011;47353;51.614;5.530;2023-04-07T04:37:08;22.08;;;7.32;;
59788;SDS011;47353;51.614;5.530;2023-04-07T04:39:34;21.90;;;7.72;;
59788;SDS011;47353;51.614;5.530;2023-04-07T04:42:00;19.08;;;7.40;;
59788;SDS011;47353;51.614;5.530;2023-04-07T04:44:26;16.98;;;7.88;;
59788;SDS011;47353;51.614;5.530;2023-04-07T04:46:51;17.73;;;7.70;;
59788;SDS011;47353;51.614;5.530;2023-04-07T04:49:17;16.60;;;7.35;;
59788;SDS011;47353;51.614;5.530;2023-04-07T04:51:43;24.02;;;8.50;;
59788;SDS011;47353;51.614;5.530;2023-04-07T04:54:09;23.20;;;7.90;;
59788;SDS011;47353;51.614;5.530;2023-04-07T04:56:34;18.95;;;8.10;;
59788;SDS011;47353;51.614;5.530;2023-04-07T04:59:01;19.10;;;8.07;;
59788;SDS011;47353;51.614;5.530;2023-04-07T05:01:27;23.70;;;8.00;;
59788;SDS011;47353;51.614;5.530;2023-04-07T05:03:52;17.90;;;7.15;;
59788;SDS011;47353;51.614;5.530;2023-04-07T05:06:18;18.73;;;8.38;;
59788;SDS011;47353;51.614;5.530;2023-04-07T05:08:43;22.30;;;8.35;;
59788;SDS011;47353;51.614;5.530;2023-04-07T05:11:09;17.67;;;8.13;;
59788;SDS011;47353;51.614;5.530;2023-04-07T05:13:35;19.40;;;8.38;;
59788;SDS011;47353;51.614;5.530;2023-04-07T05:16:01;22.33;;;9.18;;
59788;SDS011;47353;51.614;5.530;2023-04-07T05:18:26;19.65;;;8.55;;
59788;SDS011;47353;51.614;5.530;2023-04-07T05:20:51;21.60;;;9.20;;
59788;SDS011;47353;51.614;5.530;2023-04-07T05:23:17;23.95;;;9.55;;
59788;SDS011;47353;51.614;5.530;2023-04-07T05:25:42;23.65;;;9.55;;
59788;SDS011;47353;51.614;5.530;2023-04-07T05:28:08;19.67;;;8.80;;
59788;SDS011;47353;51.614;5.530;2023-04-07T05:30:33;21.85;;;9.80;;
59788;SDS011;47353;51.614;5.530;2023-04-07T05:32:58;26.15;;;10.20;;
59788;SDS011;47353;51.614;5.530;2023-04-07T05:35:24;21.60;;;9.63;;
59788;SDS011;47353;51.614;5.530;2023-04-07T05:37:49;20.10;;;9.65;;
59788;SDS011;47353;51.614;5.530;2023-04-07T05:40:15;25.00;;;10.88;;
59788;SDS011;47353;51.614;5.530;2023-04-07T05:42:40;27.92;;;10.73;;
59788;SDS011;47353;51.614;5.530;2023-04-07T05:45:06;29.38;;;10.30;;
59788;SDS011;47353;51.614;5.530;2023-04-07T05:47:33;21.25;;;10.32;;
59788;SDS011;47353;51.614;5.530;2023-04-07T05:49:58;25.10;;;10.93;;
59788;SDS011;47353;51.614;5.530;2023-04-07T05:52:24;23.55;;;10.38;;
59788;SDS011;47353;51.614;5.530;2023-04-07T05:54:50;24.73;;;11.00;;
59788;SDS011;47353;51.614;5.530;2023-04-07T05:57:15;24.60;;;10.85;;
59788;SDS011;47353;51.614;5.530;2023-04-07T05:59:41;25.15;;;10.20;;
59788;SDS011;47353;51.614;5.530;2023-04-07T06:02:06;26.95;;;10.65;;
59788;SDS011;47353;51.614;5.530;2023-04-07T06:04:31;25.85;;;11.05;;
59788;SDS011;47353;51.614;5.530;2023-04-07T06:06:59;26.50;;;11.05;;
59788;SDS011;47353;51.614;5.530;2023-04-07T06:09:27;27.33;;;11.38;;
59788;SDS011;47353;51.614;5.530;2023-04-07T06:11:52;26.77;;;10.38;;
59788;SDS011;47353;51.614;5.530;2023-04-07T06:14:18;25.65;;;11.02;;
59788;SDS011;47353;51.614;5.530;2023-04-07T06:16:43;28.85;;;12.35;;
59788;SDS011;47353;51.614;5.530;2023-04-07T06:19:09;29.23;;;11.60;;
59788;SDS011;47353;51.614;5.530;2023-04-07T06:21:35;25.70;;;11.30;;
59788;SDS011;47353;51.614;5.530;2023-04-07T06:24:00;28.77;;;12.02;;
59788;SDS011;47353;51.614;5.530;2023-04-07T06:26:26;24.10;;;11.32;;
59788;SDS011;47353;51.614;5.530;2023-04-07T06:28:52;25.58;;;10.68;;
59788;SDS011;47353;51.614;5.530;2023-04-07T06:31:17;25.80;;;11.23;;
59788;SDS011;47353;51.614;5.530;2023-04-07T06:33:44;27.92;;;11.68;;
59788;SDS011;47353;51.614;5.530;2023-04-07T06:36:10;25.63;;;11.35;;
59788;SDS011;47353;51.614;5.530;2023-04-07T06:38:35;25.60;;;12.40;;
59788;SDS011;47353;51.614;5.530;2023-04-07T06:41:01;26.33;;;11.63;;
59788;SDS011;47353;51.614;5.530;2023-04-07T06:43:26;33.75;;;10.98;;
59788;SDS011;47353;51.614;5.530;2023-04-07T06:45:52;25.15;;;11.20;;
59788;SDS011;47353;51.614;5.530;2023-04-07T06:48:18;20.92;;;11.18;;
59788;SDS011;47353;51.614;5.530;2023-04-07T06:50:48;22.38;;;10.80;;
59788;SDS011;47353;51.614;5.530;2023-04-07T06:53:13;22.42;;;10.85;;
59788;SDS011;47353;51.614;5.530;2023-04-07T06:55:39;23.85;;;10.98;;
59788;SDS011;47353;51.614;5.530;2023-04-07T06:58:05;28.38;;;10.98;;
59788;SDS011;47353;51.614;5.530;2023-04-07T07:00:30;22.13;;;10.52;;
59788;SDS011;47353;51.614;5.530;2023-04-07T07:02:56;23.05;;;10.40;;
59788;SDS011;47353;51.614;5.530;2023-04-07T07:05:21;24.65;;;10.57;;
59788;SDS011;47353;51.614;5.530;2023-04-07T07:07:47;17.95;;;9.18;;
59788;SDS011;47353;51.614;5.530;2023-04-07T07:10:13;19.88;;;9.60;;
59788;SDS011;47353;51.614;5.530;2023-04-07T07:12:39;17.70;;;9.48;;
59788;SDS011;47353;51.614;5.530;2023-04-07T07:15:15;15.85;;;9.23;;
59788;SDS011;47353;51.614;5.530;2023-04-07T07:17:45;21.33;;;9.35;;
59788;SDS011;47353;51.614;5.530;2023-04-07T07:20:10;20.45;;;10.25;;
59788;SDS011;47353;51.614;5.530;2023-04-07T07:22:41;16.73;;;9.48;;
59788;SDS011;47353;51.614;5.530;2023-04-07T07:25:06;21.42;;;9.10;;
59788;SDS011;47353;51.614;5.530;2023-04-07T07:27:32;17.67;;;8.60;;
59788;SDS011;47353;51.614;5.530;2023-04-07T07:29:57;18.13;;;8.68;;
59788;SDS011;47353;51.614;5.530;2023-04-07T07:32:23;18.38;;;8.77;;
59788;SDS011;47353;51.614;5.530;2023-04-07T07:38:10;15.00;;;7.53;;
59788;SDS011;47353;51.614;5.530;2023-04-07T07:40:36;14.63;;;7.70;;
59788;SDS011;47353;51.614;5.530;2023-04-07T07:43:01;14.93;;;7.32;;
59788;SDS011;47353;51.614;5.530;2023-04-07T07:45:26;19.52;;;7.13;;
59788;SDS011;47353;51.614;5.530;2023-04-07T07:47:52;17.35;;;7.43;;
59788;SDS011;47353;51.614;5.530;2023-04-07T07:50:17;14.13;;;8.32;;
59788;SDS011;47353;51.614;5.530;2023-04-07T07:52:42;14.32;;;8.60;;
59788;SDS011;47353;51.614;5.530;2023-04-07T07:55:08;15.75;;;8.23;;
59788;SDS011;47353;51.614;5.530;2023-04-07T07:57:34;16.10;;;7.80;;
59788;SDS011;47353;51.614;5.530;2023-04-07T08:00:00;9.48;;;6.20;;
59788;SDS011;47353;51.614;5.530;2023-04-07T08:02:25;11.98;;;6.60;;
59788;SDS011;47353;51.614;5.530;2023-04-07T08:04:55;11.88;;;6.38;;
59788;SDS011;47353;51.614;5.530;2023-04-07T08:07:21;13.90;;;6.30;;
59788;SDS011;47353;51.614;5.530;2023-04-07T08:09:46;15.80;;;6.35;;
59788;SDS011;47353;51.614;5.530;2023-04-07T08:12:12;10.98;;;5.80;;
59788;SDS011;47353;51.614;5.530;2023-04-07T08:14:37;12.35;;;5.80;;
59788;SDS011;47353;51.614;5.530;2023-04-07T08:17:03;9.82;;;5.70;;
59788;SDS011;47353;51.614;5.530;2023-04-07T08:19:28;13.63;;;5.35;;
59788;SDS011;47353;51.614;5.530;2023-04-07T08:21:54;13.95;;;5.55;;
59788;SDS011;47353;51.614;5.530;2023-04-07T08:24:19;14.07;;;5.07;;
59788;SDS011;47353;51.614;5.530;2023-04-07T08:26:45;9.52;;;5.28;;
59788;SDS011;47353;51.614;5.530;2023-04-07T08:29:10;11.05;;;6.00;;
59788;SDS011;47353;51.614;5.530;2023-04-07T08:31:36;13.35;;;5.93;;
59788;SDS011;47353;51.614;5.530;2023-04-07T08:34:01;12.55;;;5.50;;
59788;SDS011;47353;51.614;5.530;2023-04-07T08:36:27;10.32;;;5.35;;
59788;SDS011;47353;51.614;5.530;2023-04-07T08:38:52;11.88;;;5.30;;
59788;SDS011;47353;51.614;5.530;2023-04-07T08:41:40;10.02;;;5.38;;
59788;SDS011;47353;51.614;5.530;2023-04-07T08:44:07;10.73;;;5.93;;
59788;SDS011;47353;51.614;5.530;2023-04-07T08:46:34;11.73;;;5.78;;
59788;SDS011;47353;51.614;5.530;2023-04-07T08:49:03;10.85;;;5.07;;
59788;SDS011;47353;51.614;5.530;2023-04-07T08:51:34;11.93;;;5.10;;
59788;SDS011;47353;51.614;5.530;2023-04-07T08:54:11;9.20;;;4.35;;
59788;SDS011;47353;51.614;5.530;2023-04-07T08:56:38;9.20;;;4.55;;
59788;SDS011;47353;51.614;5.530;2023-04-07T08:59:06;7.63;;;4.35;;
59788;SDS011;47353;51.614;5.530;2023-04-07T09:01:33;6.28;;;3.83;;
59788;SDS011;47353;51.614;5.530;2023-04-07T09:04:04;10.52;;;4.40;;
59788;SDS011;47353;51.614;5.530;2023-04-07T09:06:31;10.98;;;3.97;;
59788;SDS011;47353;51.614;5.530;2023-04-07T09:08:58;13.10;;;4.20;;
59788;SDS011;47353;51.614;5.530;2023-04-07T09:11:25;11.65;;;4.70;;
59788;SDS011;47353;51.614;5.530;2023-04-07T09:13:51;10.52;;;4.20;;
59788;SDS011;47353;51.614;5.530;2023-04-07T09:16:16;9.15;;;4.05;;
59788;SDS011;47353;51.614;5.530;2023-04-07T09:18:42;7.72;;;4.25;;
59788;SDS011;47353;51.614;5.530;2023-04-07T09:21:08;8.43;;;3.75;;
59788;SDS011;47353;51.614;5.530;2023-04-07T09:23:34;9.50;;;4.47;;
59788;SDS011;47353;51.614;5.530;2023-04-07T09:28:41;8.70;;;4.30;;
59788;SDS011;47353;51.614;5.530;2023-04-07T09:31:10;13.00;;;4.40;;
59788;SDS011;47353;51.614;5.530;2023-04-07T09:33:36;12.32;;;4.22;;
59788;SDS011;47353;51.614;5.530;2023-04-07T09:36:02;8.68;;;3.58;;
59788;SDS011;47353;51.614;5.530;2023-04-07T09:38:48;7.93;;;3.95;;
59788;SDS011;47353;51.614;5.530;2023-04-07T09:43:44;9.38;;;3.97;;
59788;SDS011;47353;51.614;5.530;2023-04-07T09:46:14;9.07;;;3.88;;
59788;SDS011;47353;51.614;5.530;2023-04-07T09:48:41;13.38;;;4.22;;
59788;SDS011;47353;51.614;5.530;2023-04-07T09:51:16;12.77;;;4.90;;
59788;SDS011;47353;51.614;5.530;2023-04-07T09:53:46;9.57;;;4.78;;
59788;SDS011;47353;51.614;5.530;2023-04-07T09:56:14;10.32;;;4.30;;
59788;SDS011;47353;51.614;5.530;2023-04-07T09:58:42;12.18;;;4.75;;
59788;SDS011;47353;51.614;5.530;2023-04-07T10:01:09;10.68;;;4.38;;
59788;SDS011;47353;51.614;5.530;2023-04-07T10:03:35;8.57;;;3.90;;
59788;SDS011;47353;51.614;5.530;2023-04-07T10:06:02;8.52;;;3.80;;
59788;SDS011;47353;51.614;5.530;2023-04-07T10:08:29;10.48;;;3.95;;
59788;SDS011;47353;51.614;5.530;2023-04-07T10:10:56;11.43;;;4.03;;
59788;SDS011;47353;51.614;5.530;2023-04-07T10:13:23;9.63;;;3.80;;
59788;SDS011;47353;51.614;5.530;2023-04-07T10:15:50;8.98;;;3.63;;
59788;SDS011;47353;51.614;5.530;2023-04-07T10:18:16;11.27;;;3.83;;
59788;SDS011;47353;51.614;5.530;2023-04-07T10:20:43;11.73;;;3.83;;
59788;SDS011;47353;51.614;5.530;2023-04-07T10:23:18;10.43;;;3.45;;
59788;SDS011;47353;51.614;5.530;2023-04-07T10:25:48;12.00;;;3.92;;
59788;SDS011;47353;51.614;5.530;2023-04-07T10:28:18;11.10;;;3.80;;
59788;SDS011;47353;51.614;5.530;2023-04-07T10:30:47;10.18;;;3.80;;
59788;SDS011;47353;51.614;5.530;2023-04-07T10:33:13;8.43;;;3.75;;
59788;SDS011;47353;51.614;5.530;2023-04-07T10:38:27;10.55;;;3.15;;
59788;SDS011;47353;51.614;5.530;2023-04-07T10:40:53;8.45;;;3.10;;
59788;SDS011;47353;51.614;5.530;2023-04-07T10:43:37;8.60;;;2.92;;
59788;SDS011;47353;51.614;5.530;2023-04-07T10:46:05;9.88;;;3.40;;
59788;SDS011;47353;51.614;5.530;2023-04-07T10:48:31;9.55;;;3.30;;
59788;SDS011;47353;51.614;5.530;2023-04-07T10:51:21;10.98;;;3.13;;
59788;SDS011;47353;51.614;5.530;2023-04-07T10:59:27;10.18;;;3.22;;
59788;SDS011;47353;51.614;5.530;2023-04-07T11:04:42;10.88;;;3.90;;
59788;SDS011;47353;51.614;5.530;2023-04-07T11:07:09;11.35;;;4.28;;
59788;SDS011;47353;51.614;5.530;2023-04-07T11:09:36;11.25;;;4.35;;
59788;SDS011;47353;51.614;5.530;2023-04-07T11:12:01;11.93;;;4.68;;
59788;SDS011;47353;51.614;5.530;2023-04-07T11:14:28;9.98;;;4.13;;
59788;SDS011;47353;51.614;5.530;2023-04-07T11:16:55;10.55;;;3.90;;
59788;SDS011;47353;51.614;5.530;2023-04-07T11:19:20;11.52;;;4.40;;
59788;SDS011;47353;51.614;5.530;2023-04-07T11:21:46;12.35;;;5.22;;
59788;SDS011;47353;51.614;5.530;2023-04-07T11:26:56;9.63;;;4.13;;
59788;SDS011;47353;51.614;5.530;2023-04-07T11:29:27;10.85;;;3.90;;
59788;SDS011;47353;51.614;5.530;2023-04-07T11:31:57;12.15;;;4.28;;
59788;SDS011;47353;51.614;5.530;2023-04-07T11:34:30;11.63;;;4.60;;
59788;SDS011;47353;51.614;5.530;2023-04-07T11:36:56;10.60;;;4.30;;
59788;SDS011;47353;51.614;5.530;2023-04-07T11:39:25;11.10;;;4.25;;
59788;SDS011;47353;51.614;5.530;2023-04-07T11:41:52;13.23;;;4.20;;
59788;SDS011;47353;51.614;5.530;2023-04-07T11:44:18;11.52;;;4.28;;
59788;SDS011;47353;51.614;5.530;2023-04-07T11:46:59;10.35;;;4.00;;
59788;SDS011;47353;51.614;5.530;2023-04-07T11:49:27;12.93;;;3.60;;
59788;SDS011;47353;51.614;5.530;2023-04-07T11:52:00;10.02;;;3.72;;
59788;SDS011;47353;51.614;5.530;2023-04-07T11:54:40;8.00;;;3.50;;
59788;SDS011;47353;51.614;5.530;2023-04-07T11:57:25;11.77;;;4.32;;
59788;SDS011;47353;51.614;5.530;2023-04-07T12:00:10;9.57;;;3.60;;
59788;SDS011;47353;51.614;5.530;2023-04-07T12:02:37;12.85;;;4.03;;
59788;SDS011;47353;51.614;5.530;2023-04-07T12:05:03;11.38;;;3.67;;
59788;SDS011;47353;51.614;5.530;2023-04-07T12:07:29;10.15;;;3.50;;
59788;SDS011;47353;51.614;5.530;2023-04-07T12:09:55;10.07;;;3.58;;
59788;SDS011;47353;51.614;5.530;2023-04-07T12:12:29;13.35;;;3.50;;
59788;SDS011;47353;51.614;5.530;2023-04-07T12:14:57;14.77;;;4.07;;
59788;SDS011;47353;51.614;5.530;2023-04-07T12:17:23;15.52;;;3.90;;
59788;SDS011;47353;51.614;5.530;2023-04-07T12:19:50;13.10;;;3.80;;
59788;SDS011;47353;51.614;5.530;2023-04-07T12:22:16;11.00;;;3.80;;
59788;SDS011;47353;51.614;5.530;2023-04-07T12:24:42;13.10;;;3.90;;
59788;SDS011;47353;51.614;5.530;2023-04-07T12:27:07;9.18;;;3.60;;
59788;SDS011;47353;51.614;5.530;2023-04-07T12:29:33;11.82;;;3.63;;
59788;SDS011;47353;51.614;5.530;2023-04-07T12:32:01;12.13;;;3.45;;
59788;SDS011;47353;51.614;5.530;2023-04-07T12:34:26;13.40;;;3.78;;
59788;SDS011;47353;51.614;5.530;2023-04-07T12:36:52;12.40;;;3.40;;
59788;SDS011;47353;51.614;5.530;2023-04-07T12:39:17;12.43;;;3.65;;
59788;SDS011;47353;51.614;5.530;2023-04-07T12:41:43;16.15;;;3.72;;
59788;SDS011;47353;51.614;5.530;2023-04-07T12:44:13;9.60;;;3.40;;
59788;SDS011;47353;51.614;5.530;2023-04-07T12:46:39;11.00;;;3.20;;
59788;SDS011;47353;51.614;5.530;2023-04-07T12:49:05;12.25;;;3.72;;
59788;SDS011;47353;51.614;5.530;2023-04-07T12:51:30;11.13;;;3.42;;
59788;SDS011;47353;51.614;5.530;2023-04-07T12:54:00;8.95;;;3.40;;
59788;SDS011;47353;51.614;5.530;2023-04-07T12:56:26;13.60;;;4.18;;
59788;SDS011;47353;51.614;5.530;2023-04-07T12:58:54;11.40;;;3.72;;
59788;SDS011;47353;51.614;5.530;2023-04-07T13:01:20;13.05;;;4.10;;
59788;SDS011;47353;51.614;5.530;2023-04-07T13:03:45;9.35;;;3.97;;
59788;SDS011;47353;51.614;5.530;2023-04-07T13:06:11;10.15;;;3.97;;
59788;SDS011;47353;51.614;5.530;2023-04-07T13:08:37;10.82;;;4.07;;
59788;SDS011;47353;51.614;5.530;2023-04-07T13:11:03;11.90;;;4.18;;
59788;SDS011;47353;51.614;5.530;2023-04-07T13:13:29;11.88;;;4.13;;
59788;SDS011;47353;51.614;5.530;2023-04-07T13:15:55;14.05;;;4.28;;
59788;SDS011;47353;51.614;5.530;2023-04-07T13:18:21;10.65;;;4.13;;
59788;SDS011;47353;51.614;5.530;2023-04-07T13:20:46;11.32;;;4.20;;
59788;SDS011;47353;51.614;5.530;2023-04-07T13:23:11;16.15;;;4.75;;
59788;SDS011;47353;51.614;5.530;2023-04-07T13:25:37;17.30;;;4.57;;
59788;SDS011;47353;51.614;5.530;2023-04-07T13:28:02;11.07;;;4.10;;
59788;SDS011;47353;51.614;5.530;2023-04-07T13:30:28;12.80;;;4.35;;
59788;SDS011;47353;51.614;5.530;2023-04-07T13:32:53;18.40;;;4.50;;
59788;SDS011;47353;51.614;5.530;2023-04-07T13:35:19;11.73;;;4.43;;
59788;SDS011;47353;51.614;5.530;2023-04-07T13:37:45;12.63;;;4.20;;
59788;SDS011;47353;51.614;5.530;2023-04-07T13:40:10;14.77;;;4.40;;
59788;SDS011;47353;51.614;5.530;2023-04-07T13:42:38;13.63;;;4.38;;
59788;SDS011;47353;51.614;5.530;2023-04-07T13:45:04;11.95;;;4.30;;
59788;SDS011;47353;51.614;5.530;2023-04-07T13:47:30;11.52;;;4.38;;
59788;SDS011;47353;51.614;5.530;2023-04-07T13:49:58;12.50;;;4.43;;
59788;SDS011;47353;51.614;5.530;2023-04-07T13:52:24;13.52;;;4.30;;
59788;SDS011;47353;51.614;5.530;2023-04-07T13:54:51;11.25;;;4.10;;
59788;SDS011;47353;51.614;5.530;2023-04-07T13:57:16;12.52;;;4.45;;
59788;SDS011;47353;51.614;5.530;2023-04-07T13:59:45;17.73;;;4.13;;
59788;SDS011;47353;51.614;5.530;2023-04-07T14:02:12;13.05;;;3.90;;
59788;SDS011;47353;51.614;5.530;2023-04-07T14:04:37;13.00;;;4.30;;
59788;SDS011;47353;51.614;5.530;2023-04-07T14:07:03;12.82;;;4.18;;
59788;SDS011;47353;51.614;5.530;2023-04-07T14:09:28;11.65;;;3.65;;
59788;SDS011;47353;51.614;5.530;2023-04-07T14:11:54;13.48;;;3.63;;
59788;SDS011;47353;51.614;5.530;2023-04-07T14:14:19;11.75;;;3.50;;
59788;SDS011;47353;51.614;5.530;2023-04-07T14:16:44;12.07;;;3.40;;
59788;SDS011;47353;51.614;5.530;2023-04-07T14:19:10;9.15;;;3.28;;
59788;SDS011;47353;51.614;5.530;2023-04-07T14:21:35;10.93;;;3.17;;
59788;SDS011;47353;51.614;5.530;2023-04-07T14:24:01;13.13;;;3.42;;
59788;SDS011;47353;51.614;5.530;2023-04-07T14:26:26;14.55;;;4.28;;
59788;SDS011;47353;51.614;5.530;2023-04-07T14:28:51;9.43;;;3.30;;
59788;SDS011;47353;51.614;5.530;2023-04-07T14:31:17;13.25;;;3.97;;
59788;SDS011;47353;51.614;5.530;2023-04-07T14:33:43;12.10;;;3.47;;
59788;SDS011;47353;51.614;5.530;2023-04-07T14:36:09;11.18;;;3.90;;
59788;SDS011;47353;51.614;5.530;2023-04-07T14:38:35;9.63;;;4.20;;
59788;SDS011;47353;51.614;5.530;2023-04-07T14:41:01;12.77;;;4.20;;
59788;SDS011;47353;51.614;5.530;2023-04-07T14:43:27;9.80;;;3.78;;
59788;SDS011;47353;51.614;5.530;2023-04-07T14:45:53;11.40;;;4.32;;
59788;SDS011;47353;51.614;5.530;2023-04-07T14:48:19;12.68;;;4.68;;
59788;SDS011;47353;51.614;5.530;2023-04-07T14:50:46;11.73;;;4.90;;
59788;SDS011;47353;51.614;5.530;2023-04-07T14:53:11;13.23;;;4.70;;
59788;SDS011;47353;51.614;5.530;2023-04-07T14:55:37;10.35;;;4.35;;
59788;SDS011;47353;51.614;5.530;2023-04-07T14:58:02;11.85;;;4.05;;
59788;SDS011;47353;51.614;5.530;2023-04-07T15:00:29;10.35;;;3.78;;
59788;SDS011;47353;51.614;5.530;2023-04-07T15:02:54;12.32;;;4.05;;
59788;SDS011;47353;51.614;5.530;2023-04-07T15:05:20;14.02;;;4.63;;